Time;durP1;ratioP1;P1;durP2;ratioP2;P2;SDS_P1;SDS_P2;PMS_P1;PMS_P2;Temp;Humidity;BMP_temperature;BMP_pressure;BME280_temperature;BME280_humidity;BME280_pressure;Samples;Min_cycle;Max_cycle;Signal;HPM_P1;HPM_P2
2022/03/24 00:00:07;;;;;;;53.10;18.80;;;8.80;10.70;;;;;;5011128;28;21116;-59
2022/03/24 00:02:35;;;;;;;56.63;19.77;;;8.80;10.80;;;;;;5012167;28;20472;-59
2022/03/24 00:05:03;;;;;;;52.90;19.50;;;8.80;10.80;;;;;;5013851;28;21078;-55
2022/03/24 00:07:29;;;;;;;54.30;21.27;;;8.80;10.90;;;;;;5008164;28;20878;-59
2022/03/24 00:09:56;;;;;;;56.67;19.83;;;8.70;10.90;;;;;;5003240;28;20461;-59
2022/03/24 00:12:23;;;;;;;49.60;19.50;;;8.70;11.20;;;;;;5019211;28;20966;-58
2022/03/24 00:14:50;;;;;;;51.37;18.80;;;8.60;11.30;;;;;;5026726;28;20470;-58
2022/03/24 00:17:17;;;;;;;54.53;18.80;;;8.60;11.40;;;;;;5000346;28;21056;-59
2022/03/24 00:19:46;;;;;;;56.17;19.30;;;8.60;11.30;;;;;;4995803;28;20468;-56
2022/03/24 00:22:12;;;;;;;53.33;20.07;;;8.60;11.40;;;;;;5010733;28;20463;-59
2022/03/24 00:24:39;;;;;;;50.13;19.43;;;8.60;11.20;;;;;;5022140;28;21157;-57
2022/03/24 00:27:06;;;;;;;51.67;18.90;;;8.60;11.20;;;;;;5008972;28;20570;-57
2022/03/24 00:29:33;;;;;;;52.83;18.73;;;8.60;11.10;;;;;;5009326;28;20460;-59
2022/03/24 00:32:00;;;;;;;51.33;18.10;;;8.50;11.30;;;;;;5002535;28;20475;-58
2022/03/24 00:34:26;;;;;;;49.10;17.57;;;8.50;11.10;;;;;;5008531;28;21067;-58
2022/03/24 00:37:32;;;;;;;53.03;20.10;;;8.50;11.20;;;;;;5009238;28;20511;-59
2022/03/24 00:40:00;;;;;;;52.53;19.53;;;8.40;11.50;;;;;;5004115;28;20466;-57
2022/03/24 00:42:27;;;;;;;51.30;20.50;;;8.40;11.50;;;;;;5010780;28;21020;-59
2022/03/24 00:44:54;;;;;;;51.47;17.77;;;8.30;11.80;;;;;;5006935;28;20464;-59
2022/03/24 00:47:21;;;;;;;52.50;21.03;;;8.30;11.80;;;;;;5013270;28;20492;-58
2022/03/24 00:49:48;;;;;;;54.90;20.30;;;8.20;12.00;;;;;;4994910;28;20874;-58
2022/03/24 00:52:15;;;;;;;48.53;17.70;;;8.10;12.10;;;;;;5016143;28;20515;-59
2022/03/24 00:54:43;;;;;;;52.93;19.30;;;8.10;12.20;;;;;;5008557;28;20464;-58
2022/03/24 00:57:10;;;;;;;51.67;19.53;;;8.10;12.40;;;;;;5007928;28;20867;-58
2022/03/24 00:59:36;;;;;;;52.30;18.97;;;8.00;12.40;;;;;;5018474;28;20463;-58
2022/03/24 01:02:09;;;;;;;52.93;20.77;;;7.90;13.00;;;;;;5015337;28;20484;-59
2022/03/24 01:04:36;;;;;;;50.73;18.00;;;7.90;13.10;;;;;;5009150;28;20468;-58
2022/03/24 01:07:04;;;;;;;52.30;20.17;;;7.80;13.10;;;;;;4990883;28;21014;-59
2022/03/24 01:09:31;;;;;;;54.50;21.10;;;7.70;13.50;;;;;;5012010;28;20984;-58
2022/03/24 01:11:59;;;;;;;53.70;21.20;;;7.70;13.60;;;;;;5007429;28;20471;-58
2022/03/24 01:14:26;;;;;;;55.10;21.17;;;7.60;13.70;;;;;;5008391;28;20460;-59
2022/03/24 01:16:53;;;;;;;55.07;20.73;;;7.60;14.10;;;;;;5009347;28;20568;-58
2022/03/24 01:19:20;;;;;;;51.40;19.90;;;7.50;13.90;;;;;;5003841;28;20472;-58
2022/03/24 01:21:46;;;;;;;54.47;20.90;;;7.50;13.80;;;;;;5015183;28;20463;-57
2022/03/24 01:24:13;;;;;;;52.87;21.00;;;7.50;13.70;;;;;;5012734;28;20455;-59
2022/03/24 01:26:40;;;;;;;49.97;19.93;;;7.50;13.70;;;;;;5005464;28;20584;-58
2022/03/24 01:29:12;;;;;;;59.87;20.63;;;7.50;14.10;;;;;;4996375;28;20492;-58
2022/03/24 01:35:01;;;;;;;55.67;20.83;;;7.50;14.10;;;;;;5003862;28;20486;-57
2022/03/24 01:37:28;;;;;;;57.20;20.83;;;7.50;14.00;;;;;;5009210;28;20500;-58
2022/03/24 01:39:54;;;;;;;50.67;19.17;;;7.40;13.80;;;;;;5009975;28;20467;-56
2022/03/24 01:42:21;;;;;;;54.20;21.07;;;7.40;13.80;;;;;;5011326;28;20460;-57
2022/03/24 01:44:50;;;;;;;54.37;19.67;;;7.40;13.90;;;;;;5012189;28;20467;-57
2022/03/24 01:47:18;;;;;;;53.10;19.03;;;7.30;13.80;;;;;;5003218;28;20488;-57
2022/03/24 01:49:47;;;;;;;54.47;18.20;;;7.30;14.20;;;;;;4999754;28;20471;-57
2022/03/24 01:52:15;;;;;;;49.90;18.13;;;7.30;14.30;;;;;;5008481;28;20903;-58
2022/03/24 01:54:44;;;;;;;53.67;20.20;;;7.20;14.30;;;;;;5004528;28;20467;-57
2022/03/24 01:57:12;;;;;;;53.07;21.77;;;7.20;14.30;;;;;;4998731;28;20493;-57
2022/03/24 01:59:40;;;;;;;56.13;21.63;;;7.20;14.70;;;;;;5009261;28;21032;-57
2022/03/24 02:02:09;;;;;;;52.47;20.70;;;7.10;14.60;;;;;;5021055;28;20471;-57
2022/03/24 02:04:37;;;;;;;52.97;19.53;;;7.10;15.20;;;;;;5003100;28;20482;-58
2022/03/24 02:07:04;;;;;;;57.47;22.10;;;7.10;14.90;;;;;;5008128;28;20472;-57
2022/03/24 02:09:31;;;;;;;58.30;21.87;;;7.00;15.00;;;;;;5008939;28;20456;-57
2022/03/24 02:11:58;;;;;;;56.47;21.50;;;7.00;15.00;;;;;;5016067;28;20468;-57
2022/03/24 02:14:26;;;;;;;55.87;22.23;;;6.90;15.00;;;;;;5005587;28;20539;-57
2022/03/24 02:20:16;;;;;;;57.37;22.83;;;6.90;15.40;;;;;;4997454;28;20531;-58
2022/03/24 02:22:44;;;;;;;55.00;23.00;;;6.80;15.30;;;;;;5003774;28;20969;-57
2022/03/24 02:28:33;;;;;;;60.93;24.37;;;6.70;15.90;;;;;;5001222;28;20455;-57
2022/03/24 02:31:00;;;;;;;63.90;24.80;;;6.60;15.80;;;;;;5009815;28;20468;-58
2022/03/24 02:33:27;;;;;;;55.70;24.03;;;6.60;16.10;;;;;;5006279;28;20482;-58
2022/03/24 02:35:53;;;;;;;60.03;22.90;;;6.50;16.30;;;;;;4991000;28;20476;-56
2022/03/24 02:38:21;;;;;;;56.80;22.90;;;6.40;16.40;;;;;;5003259;28;20498;-57
2022/03/24 02:40:49;;;;;;;55.10;23.00;;;6.40;16.40;;;;;;5009975;28;20464;-57
2022/03/24 02:43:18;;;;;;;60.13;24.07;;;6.30;16.70;;;;;;5012030;28;20459;-58
2022/03/24 02:45:46;;;;;;;55.57;21.57;;;6.20;16.70;;;;;;5006076;28;20464;-57
2022/03/24 02:48:12;;;;;;;54.97;22.90;;;6.20;17.10;;;;;;5004686;28;20490;-57
2022/03/24 02:50:39;;;;;;;59.07;24.70;;;6.10;17.10;;;;;;5005850;28;20491;-58
2022/03/24 02:53:06;;;;;;;57.63;22.23;;;6.10;17.30;;;;;;4999478;28;20455;-58
2022/03/24 02:58:56;;;;;;;57.30;24.40;;;5.90;17.90;;;;;;4998879;28;20459;-57
2022/03/24 03:01:25;;;;;;;58.50;22.80;;;5.80;17.60;;;;;;4999832;28;20965;-57
2022/03/24 03:03:52;;;;;;;55.60;22.30;;;5.80;17.90;;;;;;5005102;28;20460;-58
2022/03/24 03:09:42;;;;;;;54.80;23.27;;;5.70;18.30;;;;;;4997871;28;20462;-57
2022/03/24 03:12:10;;;;;;;52.80;23.53;;;5.70;18.40;;;;;;5001657;28;20460;-57
2022/03/24 03:14:38;;;;;;;55.63;22.73;;;5.50;18.50;;;;;;4998425;28;20464;-58
2022/03/24 03:17:05;;;;;;;55.20;23.50;;;5.40;18.70;;;;;;4993377;28;20483;-57
2022/03/24 03:19:32;;;;;;;59.43;23.87;;;5.40;18.80;;;;;;5011472;28;20526;-54
2022/03/24 03:21:59;;;;;;;53.10;22.20;;;5.30;18.90;;;;;;4998758;28;20904;-57
2022/03/24 03:24:27;;;;;;;54.70;21.70;;;5.30;19.00;;;;;;5002337;28;20464;-59
2022/03/24 03:26:54;;;;;;;52.70;22.00;;;5.20;19.20;;;;;;4990759;28;20531;-58
2022/03/24 03:29:22;;;;;;;53.93;21.60;;;5.10;19.30;;;;;;5010051;28;20474;-57
2022/03/24 03:31:52;;;;;;;53.43;21.33;;;5.10;19.50;;;;;;5008550;28;20567;-57
2022/03/24 03:34:18;;;;;;;54.67;22.07;;;5.10;20.30;;;;;;5003333;28;20492;-58
2022/03/24 03:36:55;;;;;;;52.33;23.37;;;5.00;20.80;;;;;;4991635;28;20484;-57
2022/03/24 03:39:22;;;;;;;54.10;23.80;;;5.00;20.80;;;;;;5016523;28;20485;-58
2022/03/24 03:41:49;;;;;;;56.33;23.70;;;5.00;20.30;;;;;;5006760;28;21206;-58
2022/03/24 03:44:16;;;;;;;54.20;25.10;;;5.00;20.50;;;;;;5001215;28;20468;-54
2022/03/24 03:46:43;;;;;;;51.97;22.60;;;5.00;20.70;;;;;;4992482;28;20484;-56
2022/03/24 03:49:11;;;;;;;51.90;21.83;;;5.00;20.70;;;;;;5006331;28;20498;-57
2022/03/24 03:51:38;;;;;;;52.27;22.97;;;4.90;21.00;;;;;;5007200;28;20471;-58
2022/03/24 03:54:07;;;;;;;49.03;22.37;;;4.80;21.20;;;;;;5006698;28;20811;-57
2022/03/24 03:56:36;;;;;;;51.37;22.03;;;4.80;21.60;;;;;;4999591;28;20515;-58
2022/03/24 03:59:03;;;;;;;52.23;22.40;;;4.90;21.70;;;;;;5005522;28;20471;-59
2022/03/24 04:01:30;;;;;;;53.23;22.77;;;4.80;21.60;;;;;;5014005;28;20472;-55
2022/03/24 04:03:57;;;;;;;51.83;21.37;;;4.80;21.40;;;;;;5003816;28;21184;-58
2022/03/24 04:06:25;;;;;;;49.23;21.57;;;4.80;21.70;;;;;;4996528;28;20493;-56
2022/03/24 04:08:52;;;;;;;57.80;23.43;;;4.80;21.80;;;;;;5008162;28;20451;-57
2022/03/24 04:11:19;;;;;;;53.27;20.63;;;4.80;22.30;;;;;;5010638;28;20447;-59
2022/03/24 04:13:46;;;;;;;51.17;20.60;;;4.80;22.40;;;;;;5002903;28;20856;-57
2022/03/24 04:16:13;;;;;;;51.20;21.23;;;4.80;22.10;;;;;;5007942;28;20867;-58
2022/03/24 04:18:41;;;;;;;54.63;22.43;;;4.80;22.20;;;;;;5009945;28;20479;-57
2022/03/24 04:21:08;;;;;;;52.60;20.87;;;4.80;22.00;;;;;;5003186;28;20468;-57
2022/03/24 04:23:37;;;;;;;52.87;21.03;;;4.80;22.10;;;;;;5001299;28;20468;-58
2022/03/24 04:26:04;;;;;;;62.90;21.57;;;4.80;22.00;;;;;;4994801;28;21137;-57
2022/03/24 04:28:31;;;;;;;52.33;19.63;;;4.80;21.80;;;;;;5018049;28;20487;-58
2022/03/24 04:30:58;;;;;;;55.27;22.10;;;4.80;21.40;;;;;;5008912;28;20478;-57
2022/03/24 04:33:25;;;;;;;55.23;20.93;;;4.70;21.70;;;;;;5009391;28;20474;-58
2022/03/24 04:35:52;;;;;;;53.87;21.20;;;4.70;21.70;;;;;;5006006;28;21004;-57
2022/03/24 04:38:19;;;;;;;57.20;21.00;;;4.70;21.90;;;;;;5009677;28;20515;-55
2022/03/24 04:40:47;;;;;;;56.57;22.77;;;4.60;22.00;;;;;;5008276;28;20463;-57
2022/03/24 04:43:14;;;;;;;53.90;19.97;;;4.60;22.20;;;;;;5009778;28;20459;-57
2022/03/24 04:45:41;;;;;;;53.40;20.07;;;4.60;22.20;;;;;;5014466;28;20456;-56
2022/03/24 04:48:08;;;;;;;61.40;22.10;;;4.60;22.30;;;;;;5011073;28;20487;-57
2022/03/24 04:50:35;;;;;;;54.83;23.00;;;4.50;22.50;;;;;;5000399;28;20494;-57
2022/03/24 04:53:02;;;;;;;52.33;21.97;;;4.50;23.10;;;;;;5008598;28;20482;-58
2022/03/24 04:55:29;;;;;;;55.23;20.80;;;4.50;22.80;;;;;;5014246;28;20506;-57
2022/03/24 04:57:57;;;;;;;54.60;20.33;;;4.50;22.70;;;;;;5018398;28;21206;-60
2022/03/24 05:00:24;;;;;;;50.67;20.10;;;4.50;22.90;;;;;;5009711;28;20476;-59
2022/03/24 05:02:51;;;;;;;51.33;18.80;;;4.50;22.90;;;;;;5002412;28;21133;-57
2022/03/24 05:05:18;;;;;;;53.33;19.47;;;4.50;22.70;;;;;;5003697;28;20470;-58
2022/03/24 05:07:44;;;;;;;54.90;20.60;;;4.40;22.80;;;;;;5003279;28;20572;-63
2022/03/24 05:10:11;;;;;;;51.37;18.53;;;4.40;22.60;;;;;;5006898;28;20472;-59
2022/03/24 05:12:40;;;;;;;50.37;20.70;;;4.40;22.70;;;;;;5007402;28;20467;-59
2022/03/24 05:15:10;;;;;;;57.80;20.10;;;4.40;22.90;;;;;;5008583;28;20464;-59
2022/03/24 05:17:37;;;;;;;55.27;21.97;;;4.40;23.20;;;;;;5004780;28;20491;-58
2022/03/24 05:20:05;;;;;;;53.17;22.30;;;4.30;23.10;;;;;;5004970;28;20467;-57
2022/03/24 05:22:32;;;;;;;53.20;21.80;;;4.30;23.40;;;;;;4993098;28;20473;-59
2022/03/24 05:24:59;;;;;;;55.07;23.87;;;4.30;23.70;;;;;;5009779;28;20460;-60
2022/03/24 05:27:26;;;;;;;51.73;20.00;;;4.40;23.60;;;;;;5017560;28;21224;-59
2022/03/24 05:29:52;;;;;;;54.70;19.90;;;4.40;23.70;;;;;;5012446;28;20464;-59
2022/03/24 05:32:20;;;;;;;55.70;21.33;;;4.50;23.60;;;;;;4997983;28;20483;-61
2022/03/24 05:34:48;;;;;;;56.00;21.20;;;4.60;23.70;;;;;;5004296;28;20460;-57
2022/03/24 05:37:15;;;;;;;55.33;20.20;;;4.80;23.60;;;;;;5001963;28;20605;-56
2022/03/24 05:39:43;;;;;;;53.73;19.10;;;4.90;23.60;;;;;;5010265;28;20473;-57
2022/03/24 05:42:10;;;;;;;54.00;20.50;;;5.10;23.90;;;;;;5011526;28;20463;-57
2022/03/24 05:44:37;;;;;;;55.27;21.03;;;5.20;23.90;;;;;;5002442;28;20460;-56
2022/03/24 05:47:04;;;;;;;54.00;20.90;;;5.40;23.30;;;;;;5008413;28;20502;-56
2022/03/24 05:49:32;;;;;;;53.37;19.70;;;5.90;22.40;;;;;;5018103;28;20456;-57
2022/03/24 05:51:59;;;;;;;60.50;20.03;;;6.40;21.10;;;;;;5021078;28;20478;-56
2022/03/24 05:54:25;;;;;;;56.60;20.93;;;7.00;19.80;;;;;;5020306;28;20464;-57
2022/03/24 05:56:53;;;;;;;52.23;19.37;;;7.80;18.60;;;;;;5018013;28;20476;-57
2022/03/24 05:59:20;;;;;;;54.27;19.00;;;8.50;17.20;;;;;;5014686;28;20988;-58
2022/03/24 06:01:47;;;;;;;53.40;20.23;;;9.10;16.00;;;;;;5016123;28;20476;-58
2022/03/24 06:04:15;;;;;;;53.40;19.30;;;9.50;14.90;;;;;;5002433;28;21049;-57
2022/03/24 06:06:44;;;;;;;51.47;19.57;;;9.90;14.20;;;;;;5012790;28;20906;-58
2022/03/24 06:09:11;;;;;;;51.30;19.37;;;10.30;13.60;;;;;;5019413;28;20823;-58
2022/03/24 06:11:39;;;;;;;53.60;20.70;;;10.50;13.20;;;;;;4996384;28;20471;-53
2022/03/24 06:14:07;;;;;;;49.27;18.97;;;10.80;12.90;;;;;;4997191;28;20462;-53
2022/03/24 06:16:34;;;;;;;56.43;20.10;;;11.00;12.70;;;;;;5017238;28;20475;-55
2022/03/24 06:19:01;;;;;;;54.73;20.50;;;11.20;12.70;;;;;;5019966;28;20484;-57
2022/03/24 06:21:28;;;;;;;50.93;19.80;;;11.40;12.50;;;;;;5003989;28;20464;-54
2022/03/24 06:23:56;;;;;;;54.80;21.00;;;11.50;12.40;;;;;;5008239;28;20492;-54
2022/03/24 06:26:23;;;;;;;53.77;21.80;;;11.60;12.30;;;;;;5001100;28;20464;-53
2022/03/24 06:28:52;;;;;;;53.73;19.20;;;11.70;12.30;;;;;;5008550;28;20459;-56
2022/03/24 06:31:19;;;;;;;52.30;19.10;;;11.90;11.90;;;;;;5012325;28;20571;-55
2022/03/24 06:33:46;;;;;;;55.63;20.87;;;12.00;11.30;;;;;;5004860;28;20468;-54
2022/03/24 06:36:13;;;;;;;49.33;19.37;;;12.40;10.80;;;;;;5004354;28;20970;-55
2022/03/24 06:38:40;;;;;;;50.13;19.60;;;13.00;9.60;;;;;;5008149;28;20503;-54
2022/03/24 06:41:08;;;;;;;53.13;20.00;;;13.40;8.70;;;;;;5019027;28;20543;-55
2022/03/24 06:43:35;;;;;;;51.33;19.80;;;13.70;8.20;;;;;;5002583;28;20471;-54
2022/03/24 06:46:05;;;;;;;46.80;17.80;;;14.00;7.70;;;;;;4996514;28;20571;-53
2022/03/24 06:48:32;;;;;;;46.30;17.30;;;14.30;6.80;;;;;;5005772;28;20476;-54
2022/03/24 06:50:59;;;;;;;47.50;18.50;;;15.00;5.50;;;;;;5020251;28;20455;-55
2022/03/24 06:53:26;;;;;;;50.67;20.13;;;16.00;4.30;;;;;;5009072;28;20833;-56
2022/03/24 06:55:52;;;;;;;48.30;18.63;;;17.20;2.80;;;;;;5008443;28;20464;-54
2022/03/24 06:58:22;;;;;;;47.40;18.80;;;18.40;1.20;;;;;;5003234;28;20483;-56
2022/03/24 07:00:49;;;;;;;45.70;18.80;;;19.70;1.00;;;;;;5002889;28;20559;-56
2022/03/24 07:03:16;;;;;;;49.57;18.30;;;21.00;1.00;;;;;;5009469;28;20840;-59
2022/03/24 07:05:42;;;;;;;49.90;18.37;;;22.30;1.00;;;;;;5012754;28;20976;-59
2022/03/24 07:08:11;;;;;;;48.07;20.17;;;23.50;1.00;;;;;;5007069;28;20550;-57
2022/03/24 07:10:38;;;;;;;43.23;18.97;;;24.60;1.00;;;;;;5006938;28;20498;-59
2022/03/24 07:13:05;;;;;;;43.37;18.93;;;25.60;1.00;;;;;;5003581;28;20464;-57
2022/03/24 07:15:33;;;;;;;45.27;18.43;;;26.60;1.00;;;;;;5001327;28;20461;-58
2022/03/24 07:18:00;;;;;;;41.67;19.10;;;27.60;1.00;;;;;;5001351;28;20508;-58
2022/03/24 07:20:27;;;;;;;42.33;19.20;;;28.50;1.00;;;;;;5000457;28;20466;-58
2022/03/24 07:22:57;;;;;;;48.73;20.67;;;29.50;1.00;;;;;;5004963;28;20468;-55
2022/03/24 07:25:24;;;;;;;44.33;20.00;;;30.40;1.00;;;;;;5004948;28;20467;-56
2022/03/24 07:27:51;;;;;;;40.30;19.50;;;31.20;1.00;;;;;;5008365;28;20481;-57
2022/03/24 07:30:18;;;;;;;42.23;18.80;;;32.00;1.00;;;;;;4999349;28;20463;-57
2022/03/24 07:32:46;;;;;;;41.90;18.63;;;32.80;1.00;;;;;;5000791;28;20999;-59
2022/03/24 07:35:14;;;;;;;41.90;20.17;;;33.60;1.00;;;;;;5005065;28;20460;-60
2022/03/24 07:37:41;;;;;;;39.40;20.33;;;34.20;1.00;;;;;;5004496;28;20476;-60
2022/03/24 07:40:09;;;;;;;42.10;20.60;;;34.90;1.00;;;;;;5003014;28;20847;-59
2022/03/24 07:42:36;;;;;;;37.23;18.90;;;35.40;1.00;;;;;;5004218;28;20472;-59
2022/03/24 07:45:04;;;;;;;37.83;19.30;;;36.00;1.00;;;;;;5009001;28;20466;-54
2022/03/24 07:47:31;;;;;;;38.60;19.00;;;36.50;1.00;;;;;;4994730;28;20492;-52
2022/03/24 07:49:59;;;;;;;39.90;19.20;;;37.20;1.00;;;;;;5018259;28;20463;-55
2022/03/24 07:52:29;;;;;;;38.50;19.30;;;37.70;1.00;;;;;;5010207;28;20464;-57
2022/03/24 07:55:05;;;;;;;38.23;19.27;;;38.20;1.00;;;;;;5009041;28;20475;-55
2022/03/24 07:57:33;;;;;;;38.33;20.10;;;38.60;1.00;;;;;;5001597;28;20479;-56
2022/03/24 08:00:00;;;;;;;35.40;19.17;;;39.20;1.00;;;;;;5002000;28;20521;-57
2022/03/24 08:02:26;;;;;;;36.17;19.47;;;39.60;1.00;;;;;;5007391;28;20476;-57
2022/03/24 08:04:53;;;;;;;39.27;19.77;;;40.10;1.00;;;;;;5001177;28;20468;-56
2022/03/24 08:07:22;;;;;;;37.03;20.60;;;40.60;1.00;;;;;;5004537;28;20479;-56
2022/03/24 08:09:50;;;;;;;38.40;20.10;;;40.90;1.00;;;;;;5006597;28;20460;-56
2022/03/24 08:12:17;;;;;;;36.03;19.47;;;41.30;1.00;;;;;;5001007;28;20476;-57
2022/03/24 08:14:44;;;;;;;39.90;19.60;;;41.50;1.00;;;;;;5004473;28;20475;-56
2022/03/24 08:17:11;;;;;;;33.87;19.00;;;41.70;1.00;;;;;;5000926;28;20487;-57
2022/03/24 08:19:38;;;;;;;35.73;19.63;;;41.90;1.00;;;;;;5006364;28;20479;-58
2022/03/24 08:22:05;;;;;;;36.27;20.50;;;42.00;1.00;;;;;;5000620;28;20562;-58
2022/03/24 08:24:33;;;;;;;37.13;19.80;;;42.20;1.00;;;;;;5001056;28;20456;-59
2022/03/24 08:27:00;;;;;;;37.23;20.07;;;42.40;1.00;;;;;;5003689;28;20480;-57
2022/03/24 08:29:27;;;;;;;34.10;18.87;;;42.60;1.00;;;;;;4999526;28;20958;-59
2022/03/24 08:31:53;;;;;;;37.40;21.03;;;42.80;1.00;;;;;;4997525;28;20480;-62
2022/03/24 08:34:20;;;;;;;34.10;19.60;;;42.90;1.00;;;;;;4996311;28;20988;-59
2022/03/24 08:36:47;;;;;;;36.63;20.33;;;43.20;1.00;;;;;;5003691;28;20790;-60
2022/03/24 08:39:14;;;;;;;37.63;19.90;;;43.70;1.00;;;;;;4998232;28;21010;-58
2022/03/24 08:41:42;;;;;;;37.30;19.10;;;43.90;1.00;;;;;;5009322;28;20463;-61
2022/03/24 08:44:10;;;;;;;36.73;20.30;;;44.10;1.00;;;;;;5014732;28;20464;-59
2022/03/24 08:46:36;;;;;;;35.93;19.93;;;44.40;1.00;;;;;;5008915;28;21009;-60
2022/03/24 08:49:03;;;;;;;34.70;19.47;;;44.60;1.00;;;;;;4999031;28;20464;-59
2022/03/24 08:51:30;;;;;;;34.17;18.60;;;44.70;1.00;;;;;;5005005;28;20483;-61
2022/03/24 08:53:57;;;;;;;33.20;18.33;;;44.80;1.00;;;;;;5011781;28;20491;-59
2022/03/24 08:56:24;;;;;;;36.83;20.47;;;45.00;1.00;;;;;;5005768;28;20953;-62
2022/03/24 08:58:52;;;;;;;36.53;18.80;;;45.00;1.00;;;;;;5005330;28;21005;-60
2022/03/24 09:01:21;;;;;;;33.10;19.33;;;45.20;1.00;;;;;;5008292;28;20464;-59
2022/03/24 09:03:51;;;;;;;31.87;17.33;;;45.60;1.00;;;;;;5018180;28;20455;-60
2022/03/24 09:06:18;;;;;;;35.70;19.03;;;45.00;1.00;;;;;;5021638;28;20462;-63
2022/03/24 09:08:44;;;;;;;33.80;19.50;;;44.70;1.00;;;;;;5002686;28;20452;-61
2022/03/24 09:11:11;;;;;;;37.47;18.63;;;44.90;1.00;;;;;;5001977;28;20448;-60
2022/03/24 09:13:38;;;;;;;35.40;19.17;;;45.40;1.00;;;;;;5013610;28;20526;-62
2022/03/24 09:16:07;;;;;;;35.00;18.57;;;45.80;1.00;;;;;;4998404;28;20476;-58
2022/03/24 09:18:34;;;;;;;34.30;18.80;;;46.20;1.00;;;;;;5006634;28;21206;-58
2022/03/24 09:21:01;;;;;;;34.60;20.20;;;46.50;1.00;;;;;;5019023;28;20460;-59
2022/03/24 09:23:28;;;;;;;33.63;18.40;;;46.80;1.00;;;;;;5005851;28;20496;-61
2022/03/24 09:25:55;;;;;;;34.33;18.53;;;47.20;1.00;;;;;;5001460;28;21043;-59
2022/03/24 09:28:24;;;;;;;33.27;18.33;;;47.60;1.00;;;;;;5006704;28;20511;-60
2022/03/24 09:30:53;;;;;;;33.77;18.97;;;48.10;1.00;;;;;;5006424;28;20491;-58
2022/03/24 09:33:22;;;;;;;33.70;19.40;;;48.30;1.00;;;;;;5002104;28;20490;-59
2022/03/24 09:35:49;;;;;;;38.17;19.50;;;48.80;1.00;;;;;;4997040;28;20464;-61
2022/03/24 09:38:16;;;;;;;33.90;19.07;;;49.00;1.00;;;;;;5002375;28;20491;-60
2022/03/24 09:40:42;;;;;;;33.57;19.70;;;49.00;1.00;;;;;;5015648;28;20983;-59
2022/03/24 09:43:09;;;;;;;33.03;17.63;;;48.90;1.00;;;;;;5006102;28;20535;-61
2022/03/24 09:45:37;;;;;;;34.33;18.47;;;48.90;1.00;;;;;;5007674;28;20464;-63
2022/03/24 09:48:06;;;;;;;33.93;19.17;;;48.90;1.00;;;;;;4992272;28;20544;-61
2022/03/24 09:50:35;;;;;;;33.20;18.57;;;48.90;1.00;;;;;;5012045;28;20476;-59
2022/03/24 09:53:02;;;;;;;31.40;18.57;;;48.90;1.00;;;;;;5005661;28;20470;-63
2022/03/24 09:55:32;;;;;;;32.17;18.37;;;49.20;1.00;;;;;;4995517;28;20456;-61
2022/03/24 09:58:00;;;;;;;36.50;19.90;;;49.30;1.00;;;;;;4996865;28;21185;-58
2022/03/24 10:00:27;;;;;;;35.30;21.80;;;49.60;1.00;;;;;;5001400;28;20480;-60
2022/03/24 10:03:12;;;;;;;30.43;17.27;;;49.70;1.00;;;;;;5001128;28;20881;-60
2022/03/24 10:05:55;;;;;;;33.60;20.30;;;50.00;1.00;;;;;;5007195;28;21041;-60
2022/03/24 10:08:23;;;;;;;30.47;17.63;;;49.90;1.00;;;;;;4994157;28;20477;-59
2022/03/24 10:10:49;;;;;;;32.80;18.43;;;49.90;1.00;;;;;;5008808;28;20470;-61
2022/03/24 10:13:25;;;;;;;32.47;17.43;;;50.20;1.00;;;;;;4999958;28;20479;-61
2022/03/24 10:15:53;;;;;;;31.50;17.77;;;50.50;1.00;;;;;;5000147;28;20466;-60
2022/03/24 10:18:20;;;;;;;32.53;18.57;;;50.80;1.00;;;;;;4998129;28;20480;-61
2022/03/24 10:20:48;;;;;;;31.40;19.17;;;50.60;1.00;;;;;;4999311;28;21001;-62
2022/03/24 10:23:15;;;;;;;34.03;19.23;;;50.50;1.00;;;;;;5004783;28;20475;-60
2022/03/24 10:25:44;;;;;;;33.23;18.37;;;50.30;1.00;;;;;;5002749;28;20466;-60
2022/03/24 10:28:14;;;;;;;31.40;18.43;;;50.30;1.00;;;;;;5001948;28;21287;-59
2022/03/24 10:30:49;;;;;;;32.57;17.80;;;50.20;1.00;;;;;;4997078;28;20989;-62
2022/03/24 10:33:27;;;;;;;32.47;18.03;;;50.30;1.00;;;;;;5004438;28;21220;-60
2022/03/24 10:36:12;;;;;;;30.60;16.40;;;49.90;1.00;;;;;;4997633;28;20586;-60
2022/03/24 10:38:41;;;;;;;30.30;16.50;;;49.70;1.00;;;;;;5002138;28;20460;-60
2022/03/24 10:41:19;;;;;;;30.83;17.47;;;49.70;1.00;;;;;;5003425;28;20550;-61
2022/03/24 10:43:49;;;;;;;28.20;14.90;;;49.70;1.00;;;;;;4999454;28;20463;-62
2022/03/24 10:46:18;;;;;;;30.07;14.20;;;49.80;1.00;;;;;;4996768;28;20518;-62
2022/03/24 10:48:47;;;;;;;30.47;15.60;;;49.80;1.00;;;;;;5002706;28;20850;-61
2022/03/24 10:51:22;;;;;;;31.33;15.73;;;49.70;1.00;;;;;;5006533;28;20499;-61
2022/03/24 10:53:50;;;;;;;32.93;16.53;;;49.50;1.00;;;;;;4994804;28;20526;-61
2022/03/24 10:56:20;;;;;;;32.83;16.47;;;49.40;1.00;;;;;;5002421;28;20529;-60
2022/03/24 10:58:53;;;;;;;32.17;17.30;;;49.20;1.00;;;;;;5001054;28;20459;-60
2022/03/24 11:01:22;;;;;;;29.07;14.67;;;48.90;1.00;;;;;;4994721;28;21059;-59
2022/03/24 11:03:49;;;;;;;31.50;14.70;;;48.60;1.00;;;;;;5002283;28;20988;-58
2022/03/24 11:06:20;;;;;;;32.60;14.47;;;47.70;1.00;;;;;;4994099;28;20464;-60
2022/03/24 11:08:53;;;;;;;31.43;16.03;;;46.50;1.00;;;;;;4994825;28;20459;-62
2022/03/24 11:11:20;;;;;;;30.83;15.10;;;45.50;1.00;;;;;;4999771;28;20467;-62
2022/03/24 11:13:51;;;;;;;31.07;14.77;;;45.30;1.00;;;;;;4997966;28;20514;-62
2022/03/24 11:16:19;;;;;;;30.83;15.13;;;45.40;1.00;;;;;;4989657;28;20469;-63
2022/03/24 11:18:47;;;;;;;29.20;13.07;;;45.30;1.00;;;;;;5003820;28;20468;-62
2022/03/24 11:21:21;;;;;;;31.10;13.90;;;45.00;1.00;;;;;;5002127;28;20498;-62
2022/03/24 11:23:48;;;;;;;29.53;12.90;;;44.90;1.00;;;;;;4995527;28;20860;-62
2022/03/24 11:26:15;;;;;;;29.73;13.87;;;44.50;1.00;;;;;;5008837;28;20482;-61
2022/03/24 11:28:46;;;;;;;31.80;15.47;;;43.60;1.00;;;;;;5002757;28;20467;-63
2022/03/24 11:31:14;;;;;;;35.53;14.70;;;43.10;1.00;;;;;;4993705;28;20494;-63
2022/03/24 11:33:44;;;;;;;33.07;14.17;;;42.80;1.00;;;;;;4992765;28;20464;-59
2022/03/24 11:36:12;;;;;;;28.80;12.37;;;42.40;1.00;;;;;;5013854;28;20462;-63
2022/03/24 11:38:42;;;;;;;31.70;12.97;;;41.90;1.00;;;;;;4997139;28;20514;-58
2022/03/24 11:41:16;;;;;;;32.03;13.10;;;41.10;1.00;;;;;;4995498;28;20859;-59
2022/03/24 11:43:49;;;;;;;34.17;15.27;;;40.20;1.00;;;;;;4999608;28;20471;-60
2022/03/24 11:46:27;;;;;;;33.63;14.60;;;39.00;1.00;;;;;;5002762;28;20519;-60
2022/03/24 11:49:13;;;;;;;34.67;16.23;;;37.50;1.00;;;;;;4995502;28;20460;-59
2022/03/24 11:51:40;;;;;;;31.70;12.43;;;36.00;1.00;;;;;;4999623;28;20546;-58
2022/03/24 11:54:09;;;;;;;32.63;12.30;;;34.80;1.00;;;;;;5009512;28;20470;-57
2022/03/24 11:56:37;;;;;;;32.50;11.97;;;33.60;1.00;;;;;;5004836;28;20527;-57
2022/03/24 11:59:20;;;;;;;34.40;12.70;;;32.40;1.00;;;;;;5005727;28;20466;-58
2022/03/24 12:01:48;;;;;;;34.53;13.53;;;31.40;1.00;;;;;;5003022;28;20551;-59
2022/03/24 12:04:16;;;;;;;35.80;12.90;;;30.40;1.00;;;;;;5005508;28;20997;-59
2022/03/24 12:07:01;;;;;;;36.87;15.87;;;29.70;1.00;;;;;;4998598;28;21017;-60
2022/03/24 12:09:34;;;;;;;38.80;16.07;;;29.10;1.00;;;;;;5002272;28;20809;-58
2022/03/24 12:12:09;;;;;;;36.50;13.27;;;28.60;1.00;;;;;;5008308;28;20456;-58
2022/03/24 12:14:45;;;;;;;36.77;13.70;;;28.00;1.00;;;;;;5007036;28;20459;-60
2022/03/24 12:17:21;;;;;;;37.70;13.40;;;27.40;1.00;;;;;;5000552;28;20485;-58
2022/03/24 12:19:50;;;;;;;38.40;14.23;;;27.00;1.00;;;;;;5005067;28;20494;-59
2022/03/24 12:22:43;;;;;;;41.90;15.83;;;26.60;1.00;;;;;;5004039;28;20468;-57
2022/03/24 12:25:29;;;;;;;39.47;16.03;;;26.20;1.00;;;;;;4998806;28;20464;-59
2022/03/24 12:28:11;;;;;;;37.10;15.17;;;26.00;1.00;;;;;;4997565;28;20895;-59
2022/03/24 12:31:06;;;;;;;41.60;14.80;;;25.80;1.00;;;;;;5001100;28;20574;-57
2022/03/24 12:33:40;;;;;;;42.53;15.37;;;25.60;1.00;;;;;;4999846;28;20464;-57
2022/03/24 12:36:13;;;;;;;38.23;13.63;;;25.30;1.00;;;;;;5001628;28;20468;-59
2022/03/24 12:38:56;;;;;;;39.67;15.20;;;25.10;1.00;;;;;;4998243;28;20470;-57
2022/03/24 12:41:28;;;;;;;40.40;13.80;;;24.90;1.00;;;;;;5000416;28;20506;-58
2022/03/24 12:44:06;;;;;;;38.37;15.17;;;24.80;1.00;;;;;;5008486;28;20464;-58
2022/03/24 12:46:39;;;;;;;37.40;14.33;;;24.60;1.00;;;;;;4991816;28;20536;-58
2022/03/24 12:49:29;;;;;;;41.20;16.77;;;24.40;1.00;;;;;;5000234;28;20467;-57
2022/03/24 12:52:01;;;;;;;40.50;13.90;;;24.20;1.00;;;;;;4999194;28;21134;-58
2022/03/24 12:54:30;;;;;;;41.77;16.53;;;24.00;1.00;;;;;;4995093;28;20467;-56
2022/03/24 12:57:24;;;;;;;40.07;13.33;;;23.90;1.00;;;;;;5008521;28;21037;-58
2022/03/24 12:59:51;;;;;;;37.70;13.53;;;23.70;1.00;;;;;;5002774;28;20488;-58